Time;durP1;ratioP1;P1;durP2;ratioP2;P2;SDS_P1;SDS_P2;PMS_P1;PMS_P2;Temp;Humidity;BMP_temperature;BMP_pressure;BME280_temperature;BME280_humidity;BME280_pressure;Samples;Min_cycle;Max_cycle;Signal;HPM_P1;HPM_P2
2021/09/10 00:01:39;;;;;;;9.63;7.65;;;17.40;98.20;;;;;;5067673;28;20044;-82
2021/09/10 00:04:05;;;;;;;9.07;7.50;;;17.40;98.20;;;;;;5047693;28;20021;-82
2021/09/10 00:06:31;;;;;;;7.20;6.50;;;17.30;98.20;;;;;;5045194;28;20026;-85
2021/09/10 00:08:57;;;;;;;8.88;7.50;;;17.30;98.40;;;;;;5043688;28;20024;-82
2021/09/10 00:11:24;;;;;;;7.65;6.93;;;17.30;98.50;;;;;;5066223;28;20040;-83
2021/09/10 00:13:50;;;;;;;7.97;6.63;;;17.30;98.50;;;;;;5067979;28;20032;-82
2021/09/10 00:16:15;;;;;;;6.55;5.80;;;17.30;98.60;;;;;;5068405;28;20088;-83
2021/09/10 00:18:41;;;;;;;7.05;6.35;;;17.30;98.60;;;;;;5066741;28;20017;-82
2021/09/10 00:21:07;;;;;;;6.10;5.53;;;17.30;98.50;;;;;;5065091;28;20088;-85
2021/09/10 00:23:32;;;;;;;6.95;6.25;;;17.30;98.40;;;;;;5055298;28;20026;-84
2021/09/10 00:25:58;;;;;;;7.00;6.30;;;17.30;98.40;;;;;;5048407;28;20029;-82
2021/09/10 00:28:25;;;;;;;6.13;5.53;;;17.20;98.40;;;;;;5036706;28;20037;-82
2021/09/10 00:30:51;;;;;;;6.72;6.03;;;17.20;98.40;;;;;;5031751;28;20021;-83
2021/09/10 00:33:17;;;;;;;6.80;5.75;;;17.30;98.50;;;;;;5035817;28;20124;-82
2021/09/10 00:35:43;;;;;;;6.22;5.63;;;17.20;98.50;;;;;;5060623;28;20029;-82
2021/09/10 00:38:09;;;;;;;7.25;6.55;;;17.20;98.60;;;;;;5047313;28;20029;-82
2021/09/10 00:40:35;;;;;;;7.13;6.43;;;17.20;98.70;;;;;;5048932;28;20028;-83
2021/09/10 00:43:00;;;;;;;6.78;6.18;;;17.10;98.80;;;;;;5065336;28;20486;-83
2021/09/10 00:45:26;;;;;;;6.82;6.10;;;17.10;99.00;;;;;;5049462;28;20119;-84
2021/09/10 00:47:52;;;;;;;9.00;6.70;;;17.10;99.10;;;;;;5065942;28;20040;-83
2021/09/10 00:50:19;;;;;;;6.35;5.75;;;17.10;99.30;;;;;;5065903;28;20021;-84
2021/09/10 00:52:44;;;;;;;6.32;5.50;;;17.10;99.30;;;;;;5065056;28;20465;-84
2021/09/10 00:55:11;;;;;;;5.95;5.40;;;17.00;99.40;;;;;;5048771;28;20056;-83
2021/09/10 00:57:37;;;;;;;6.40;5.80;;;17.10;99.40;;;;;;5065745;28;20049;-83
2021/09/10 01:00:04;;;;;;;6.25;5.63;;;17.00;99.30;;;;;;5066823;28;20419;-82
2021/09/10 01:02:30;;;;;;;6.13;5.53;;;17.10;99.20;;;;;;5066934;28;20102;-82
2021/09/10 01:04:56;;;;;;;8.15;6.00;;;17.10;99.20;;;;;;5048894;28;20021;-83
2021/09/10 01:07:24;;;;;;;6.32;5.68;;;17.00;99.10;;;;;;5050309;28;20031;-84
2021/09/10 01:09:50;;;;;;;5.85;5.35;;;17.00;99.10;;;;;;5058755;28;20020;-82
2021/09/10 01:12:16;;;;;;;5.78;5.28;;;17.00;99.20;;;;;;5067960;28;20021;-84
2021/09/10 01:14:43;;;;;;;5.50;5.00;;;16.90;99.20;;;;;;5069802;28;20025;-83
2021/09/10 01:17:08;;;;;;;5.32;4.82;;;16.90;99.20;;;;;;5057082;28;20041;-81
2021/09/10 01:19:36;;;;;;;5.65;5.10;;;16.90;99.40;;;;;;5075362;28;20028;-85
2021/09/10 01:22:03;;;;;;;5.80;5.28;;;16.90;99.50;;;;;;5067629;28;20021;-85
2021/09/10 01:24:36;;;;;;;6.20;5.43;;;16.80;99.70;;;;;;5063736;28;20032;-84
2021/09/10 01:27:02;;;;;;;5.85;5.32;;;16.80;99.90;;;;;;5046152;28;20030;-83
2021/09/10 01:29:31;;;;;;;6.28;5.68;;;16.80;99.90;;;;;;5048998;28;20060;-85
2021/09/10 01:31:56;;;;;;;6.30;5.70;;;16.80;99.90;;;;;;5050858;28;20051;-82
2021/09/10 01:34:22;;;;;;;6.95;6.25;;;16.70;99.90;;;;;;5031299;28;20057;-82
2021/09/10 01:36:48;;;;;;;7.28;6.38;;;16.70;99.90;;;;;;5039210;28;20033;-82
2021/09/10 01:39:14;;;;;;;7.60;6.40;;;16.60;99.90;;;;;;5066168;28;20033;-83
2021/09/10 01:41:40;;;;;;;9.43;6.63;;;16.60;99.90;;;;;;5075026;28;20055;-83
2021/09/10 01:44:09;;;;;;;6.70;6.05;;;16.50;99.90;;;;;;5075927;28;20063;-83
2021/09/10 01:46:35;;;;;;;5.97;5.47;;;16.50;99.90;;;;;;5075606;28;20036;-82
2021/09/10 01:49:00;;;;;;;7.00;6.30;;;16.50;99.90;;;;;;5075951;28;20029;-80
2021/09/10 01:51:30;;;;;;;7.93;6.85;;;16.50;99.90;;;;;;5072211;28;20028;-82
2021/09/10 01:54:00;;;;;;;9.68;7.85;;;16.50;99.90;;;;;;5072835;28;20082;-84
2021/09/10 01:56:27;;;;;;;8.48;6.53;;;16.50;99.90;;;;;;5071056;28;20013;-82
2021/09/10 01:58:53;;;;;;;7.45;6.35;;;16.50;99.90;;;;;;5053417;28;20029;-84
2021/09/10 02:01:27;;;;;;;8.02;6.43;;;16.50;99.90;;;;;;5070883;28;20025;-85
2021/09/10 02:03:53;;;;;;;7.22;6.55;;;16.50;99.90;;;;;;5051722;28;20021;-84
2021/09/10 02:06:19;;;;;;;7.70;6.72;;;16.50;99.90;;;;;;5055668;28;20512;-85
2021/09/10 02:08:45;;;;;;;7.65;6.85;;;16.50;99.90;;;;;;5061011;28;20013;-83
2021/09/10 02:11:11;;;;;;;6.90;6.15;;;16.50;99.90;;;;;;5069875;28;20017;-84
2021/09/10 02:13:37;;;;;;;7.70;6.50;;;16.50;99.90;;;;;;5070152;28;20401;-84
2021/09/10 02:16:06;;;;;;;6.93;6.22;;;16.50;99.90;;;;;;5067405;28;20029;-84
2021/09/10 02:18:32;;;;;;;6.45;5.85;;;16.50;99.90;;;;;;5068530;28;20394;-85
2021/09/10 02:20:58;;;;;;;6.72;6.13;;;16.50;99.90;;;;;;5069343;28;20017;-84
2021/09/10 02:23:23;;;;;;;6.68;6.07;;;16.50;99.90;;;;;;5051777;28;20015;-83
2021/09/10 02:25:49;;;;;;;6.80;6.20;;;16.50;99.90;;;;;;5076243;28;20040;-80
2021/09/10 02:28:15;;;;;;;7.88;6.03;;;16.50;99.90;;;;;;5060368;28;20583;-81
2021/09/10 02:30:40;;;;;;;7.30;6.50;;;16.50;99.90;;;;;;5052844;28;20026;-84
2021/09/10 02:33:06;;;;;;;7.03;6.32;;;16.60;99.90;;;;;;5033589;28;20025;-84
2021/09/10 02:35:32;;;;;;;7.28;5.70;;;16.50;99.90;;;;;;5042294;28;20102;-80
2021/09/10 02:37:57;;;;;;;6.75;5.38;;;16.50;99.90;;;;;;5056920;28;20431;-81
2021/09/10 02:40:24;;;;;;;6.65;6.00;;;16.50;99.90;;;;;;5049363;28;20029;-81
2021/09/10 02:42:49;;;;;;;7.22;6.05;;;16.40;99.90;;;;;;5075410;28;20021;-83
2021/09/10 02:45:15;;;;;;;6.30;5.70;;;16.40;99.90;;;;;;5074683;28;20033;-84
2021/09/10 02:47:41;;;;;;;6.47;5.88;;;16.40;99.90;;;;;;5073535;28;20029;-81
2021/09/10 02:50:08;;;;;;;6.72;6.13;;;16.30;99.90;;;;;;5074375;28;20365;-82
2021/09/10 02:52:35;;;;;;;5.57;5.07;;;16.40;99.90;;;;;;5055647;28;20100;-82
2021/09/10 02:55:01;;;;;;;6.40;5.80;;;16.30;99.90;;;;;;5054842;28;20025;-84
2021/09/10 02:57:27;;;;;;;5.32;4.82;;;16.30;99.90;;;;;;5052142;28;20075;-84
2021/09/10 02:59:52;;;;;;;5.75;5.25;;;16.30;99.90;;;;;;5042461;28;20025;-84
2021/09/10 03:02:18;;;;;;;5.65;5.13;;;16.30;99.90;;;;;;5041833;28;20021;-82
2021/09/10 03:04:45;;;;;;;4.82;4.43;;;16.30;99.90;;;;;;5040033;28;20037;-82
2021/09/10 03:07:11;;;;;;;6.20;5.60;;;16.30;99.90;;;;;;5035081;28;20017;-82
2021/09/10 03:09:37;;;;;;;6.45;5.57;;;16.20;99.90;;;;;;5063126;28;20033;-85
2021/09/10 03:12:03;;;;;;;5.72;5.07;;;16.20;99.90;;;;;;5069521;28;20091;-84
2021/09/10 03:14:31;;;;;;;5.63;5.10;;;16.20;99.90;;;;;;5071375;28;20044;-85
2021/09/10 03:16:57;;;;;;;5.75;5.18;;;16.20;99.90;;;;;;5069644;28;20028;-83
2021/09/10 03:19:24;;;;;;;5.55;5.00;;;16.20;99.90;;;;;;5053777;28;20032;-83
2021/09/10 03:21:50;;;;;;;6.10;5.50;;;16.20;99.90;;;;;;5072646;28;20078;-83
2021/09/10 03:24:16;;;;;;;5.53;4.95;;;16.20;99.90;;;;;;5053760;28;20025;-84
2021/09/10 03:26:42;;;;;;;5.70;5.20;;;16.20;99.90;;;;;;5071043;28;20065;-82
2021/09/10 03:29:08;;;;;;;6.57;5.93;;;16.20;99.90;;;;;;5061235;28;20029;-83
2021/09/10 03:31:34;;;;;;;6.88;5.88;;;16.10;99.90;;;;;;5029528;28;20067;-83
2021/09/10 03:34:00;;;;;;;6.90;6.20;;;16.10;99.90;;;;;;5044375;28;20024;-83
2021/09/10 03:36:35;;;;;;;6.20;5.60;;;16.10;99.90;;;;;;5053353;28;20454;-84
2021/09/10 03:39:00;;;;;;;6.60;5.95;;;16.10;99.90;;;;;;5029917;28;20104;-83
2021/09/10 03:41:26;;;;;;;7.25;5.63;;;16.10;99.90;;;;;;5046775;28;20029;-83
2021/09/10 03:43:55;;;;;;;5.90;5.30;;;16.10;99.90;;;;;;5026890;28;20032;-83
2021/09/10 03:46:21;;;;;;;6.82;6.03;;;16.10;99.90;;;;;;5027730;28;20029;-83
2021/09/10 03:48:48;;;;;;;7.20;6.35;;;16.10;99.90;;;;;;5029629;28;20030;-84
2021/09/10 03:51:20;;;;;;;5.70;5.10;;;16.00;99.90;;;;;;5058725;28;20033;-84
2021/09/10 03:53:46;;;;;;;8.50;5.80;;;16.10;99.90;;;;;;5044276;28;20021;-82
2021/09/10 03:56:11;;;;;;;6.53;5.93;;;16.00;99.90;;;;;;5076920;28;20025;-80
2021/09/10 03:58:41;;;;;;;6.47;5.82;;;16.00;99.90;;;;;;5077406;28;20017;-83
2021/09/10 04:01:26;;;;;;;7.20;6.50;;;16.00;99.90;;;;;;5072280;28;20045;-81
2021/09/10 04:03:52;;;;;;;10.25;6.20;;;16.00;99.90;;;;;;5075545;28;20025;-82
2021/09/10 04:06:24;;;;;;;8.18;6.60;;;16.00;99.90;;;;;;5043438;28;20068;-85
2021/09/10 04:08:50;;;;;;;6.88;5.80;;;15.90;99.90;;;;;;5031497;28;20025;-84
2021/09/10 04:11:16;;;;;;;6.60;5.80;;;15.90;99.90;;;;;;5053682;28;20033;-85
2021/09/10 04:13:44;;;;;;;6.95;6.25;;;15.90;99.90;;;;;;5074857;28;20040;-81
2021/09/10 04:16:10;;;;;;;6.78;6.18;;;15.90;99.90;;;;;;5074321;28;20044;-82
2021/09/10 04:18:35;;;;;;;6.90;6.20;;;15.80;99.90;;;;;;5063430;28;20043;-85
2021/09/10 04:21:01;;;;;;;7.82;5.82;;;15.80;99.90;;;;;;5056635;28;20053;-83
2021/09/10 04:23:27;;;;;;;7.78;6.78;;;15.80;99.90;;;;;;5059384;28;20047;-84
2021/09/10 04:25:52;;;;;;;7.55;6.65;;;15.80;99.90;;;;;;5102667;22;20045;-84
2021/09/10 04:28:18;;;;;;;8.05;6.05;;;15.80;99.90;;;;;;5039378;28;20081;-82
2021/09/10 04:30:46;;;;;;;6.50;5.90;;;15.80;99.90;;;;;;5040561;28;20092;-83
2021/09/10 04:33:12;;;;;;;6.85;6.15;;;15.70;99.90;;;;;;5058198;28;20363;-84
2021/09/10 04:35:37;;;;;;;6.65;6.05;;;15.70;99.90;;;;;;5049729;28;20036;-82
2021/09/10 04:38:03;;;;;;;6.07;5.47;;;15.70;99.90;;;;;;5034614;28;20030;-84
2021/09/10 04:40:29;;;;;;;6.60;6.00;;;15.70;99.90;;;;;;5034920;28;20033;-81
2021/09/10 04:42:54;;;;;;;6.80;6.10;;;15.70;99.90;;;;;;5049531;28;20128;-84
2021/09/10 04:45:22;;;;;;;6.80;6.10;;;15.70;99.90;;;;;;5036300;28;20461;-84
2021/09/10 04:47:48;;;;;;;7.07;6.30;;;15.70;99.90;;;;;;5036797;28;20025;-84
2021/09/10 04:50:16;;;;;;;7.55;6.75;;;15.70;99.90;;;;;;5035795;28;20025;-84
2021/09/10 04:52:42;;;;;;;7.05;6.32;;;15.70;99.90;;;;;;5038402;28;20036;-85
2021/09/10 04:55:09;;;;;;;7.25;6.45;;;15.70;99.90;;;;;;5036636;28;20030;-84
2021/09/10 04:57:36;;;;;;;7.85;7.03;;;15.70;99.90;;;;;;5019283;28;20037;-85
2021/09/10 05:00:03;;;;;;;6.88;6.18;;;15.70;99.90;;;;;;5019110;28;20389;-84
2021/09/10 05:02:29;;;;;;;8.00;6.80;;;15.70;99.90;;;;;;5039750;28;20014;-84
2021/09/10 05:07:26;;;;;;;7.78;6.85;;;15.80;99.90;;;;;;5037365;28;20409;-80
2021/09/10 05:09:51;;;;;;;6.30;5.70;;;15.80;99.90;;;;;;5031924;28;20026;-81
2021/09/10 05:12:17;;;;;;;6.50;5.90;;;15.80;99.90;;;;;;5021098;28;20030;-81
2021/09/10 05:14:43;;;;;;;6.32;5.72;;;15.90;99.90;;;;;;5021419;28;20022;-81
2021/09/10 05:17:10;;;;;;;8.00;6.90;;;15.90;99.90;;;;;;5021038;28;20076;-81
2021/09/10 05:19:36;;;;;;;7.53;6.43;;;16.00;99.90;;;;;;5039889;28;20092;-81
2021/09/10 05:22:01;;;;;;;7.03;5.60;;;16.00;99.90;;;;;;5041086;28;20454;-81
2021/09/10 05:24:27;;;;;;;6.80;6.13;;;16.00;99.90;;;;;;5023422;28;20526;-81
2021/09/10 05:26:53;;;;;;;7.88;6.25;;;16.10;99.90;;;;;;5022374;28;20030;-81
2021/09/10 05:29:18;;;;;;;7.28;6.57;;;16.20;99.90;;;;;;5021954;28;20085;-82
2021/09/10 05:31:44;;;;;;;6.85;6.15;;;16.20;99.90;;;;;;5025483;28;20029;-82
2021/09/10 05:34:11;;;;;;;7.03;6.32;;;16.20;99.90;;;;;;5028635;28;20033;-81
2021/09/10 05:36:38;;;;;;;5.70;5.10;;;16.30;99.90;;;;;;5027294;28;20022;-82
2021/09/10 05:39:03;;;;;;;5.82;5.22;;;16.40;99.90;;;;;;5029228;28;20084;-81
2021/09/10 05:41:29;;;;;;;5.95;5.35;;;16.40;99.90;;;;;;5023091;28;20038;-81
2021/09/10 05:43:55;;;;;;;5.57;5.05;;;16.50;99.90;;;;;;5040559;28;20033;-80
2021/09/10 05:46:21;;;;;;;10.20;7.20;;;16.50;99.90;;;;;;5039279;28;20473;-85
2021/09/10 05:48:46;;;;;;;6.75;6.05;;;16.60;99.90;;;;;;5017468;28;20029;-84
2021/09/10 05:51:12;;;;;;;8.13;6.35;;;16.60;99.90;;;;;;5016975;28;20025;-81
2021/09/10 05:53:39;;;;;;;6.63;5.68;;;16.70;99.90;;;;;;5037400;28;20014;-82
2021/09/10 05:56:06;;;;;;;6.40;5.80;;;16.70;99.90;;;;;;5053877;28;20104;-85
2021/09/10 05:58:32;;;;;;;6.45;5.40;;;16.80;99.90;;;;;;5035755;28;20037;-85
2021/09/10 06:00:57;;;;;;;5.40;4.75;;;16.90;99.90;;;;;;5041647;28;20025;-86
2021/09/10 06:03:23;;;;;;;8.07;6.05;;;17.00;99.90;;;;;;5023194;28;20095;-86
2021/09/10 06:05:49;;;;;;;6.88;6.10;;;17.00;99.90;;;;;;5033947;28;20025;-84
2021/09/10 06:08:15;;;;;;;6.55;5.80;;;17.10;99.60;;;;;;5019352;28;20044;-85
2021/09/10 06:10:41;;;;;;;5.97;5.38;;;17.20;99.40;;;;;;5005347;28;20033;-85
2021/09/10 06:13:10;;;;;;;6.43;5.82;;;17.30;99.20;;;;;;5000889;28;20033;-85
2021/09/10 06:15:36;;;;;;;6.03;5.30;;;17.40;98.80;;;;;;5018066;28;20018;-85
2021/09/10 06:18:02;;;;;;;6.13;5.53;;;17.40;98.60;;;;;;5028389;28;20032;-85
2021/09/10 06:20:27;;;;;;;9.88;7.22;;;17.50;98.30;;;;;;5007763;28;20076;-85
2021/09/10 06:22:53;;;;;;;8.27;6.45;;;17.60;97.90;;;;;;5020042;28;20069;-86
2021/09/10 06:25:19;;;;;;;7.53;5.60;;;17.70;97.70;;;;;;5001033;28;20081;-84
2021/09/10 06:27:45;;;;;;;7.50;6.03;;;17.70;97.50;;;;;;5019266;28;20102;-85
2021/09/10 06:30:11;;;;;;;6.40;5.55;;;17.80;97.10;;;;;;5000838;28;20096;-86
2021/09/10 06:32:37;;;;;;;7.35;5.63;;;17.90;96.90;;;;;;5019497;28;20022;-86
2021/09/10 06:35:03;;;;;;;6.72;6.03;;;17.90;96.70;;;;;;5018203;28;20099;-86
2021/09/10 06:37:29;;;;;;;8.07;5.80;;;18.00;96.40;;;;;;5028361;28;20045;-86
2021/09/10 06:39:55;;;;;;;7.10;5.90;;;18.10;96.20;;;;;;5029118;28;20041;-85
2021/09/10 06:42:21;;;;;;;8.23;5.70;;;18.10;95.90;;;;;;5037137;28;20106;-84
2021/09/10 06:44:47;;;;;;;6.40;5.80;;;18.20;95.70;;;;;;5037422;28;20017;-84
2021/09/10 06:47:13;;;;;;;7.63;5.68;;;18.30;95.40;;;;;;5029984;28;20029;-84
2021/09/10 06:49:38;;;;;;;5.50;5.00;;;18.40;95.10;;;;;;5010487;28;20025;-86
2021/09/10 06:52:04;;;;;;;5.85;5.35;;;18.50;94.70;;;;;;5019357;28;20422;-86
2021/09/10 06:54:30;;;;;;;5.88;5.28;;;18.60;94.50;;;;;;5018722;28;20486;-86
2021/09/10 06:56:56;;;;;;;6.22;5.60;;;18.60;94.10;;;;;;5026388;28;20060;-86
2021/09/10 06:59:21;;;;;;;6.75;6.05;;;18.80;93.90;;;;;;5028539;28;20031;-85
2021/09/10 07:01:48;;;;;;;7.07;5.53;;;18.80;93.50;;;;;;5038318;28;20025;-85
2021/09/10 07:04:14;;;;;;;6.18;5.18;;;19.00;93.20;;;;;;5021242;28;20390;-85
2021/09/10 07:06:39;;;;;;;7.43;5.65;;;19.10;92.90;;;;;;5026672;28;20457;-84
2021/09/10 07:09:05;;;;;;;9.25;6.55;;;19.30;92.40;;;;;;5030310;28;20021;-86
2021/09/10 07:11:35;;;;;;;8.85;6.47;;;19.40;91.90;;;;;;5029166;28;20022;-85
2021/09/10 07:14:02;;;;;;;7.18;5.78;;;19.50;91.60;;;;;;5056578;28;20022;-85
2021/09/10 07:16:28;;;;;;;8.98;5.70;;;19.70;91.20;;;;;;5038226;28;20032;-83
2021/09/10 07:18:53;;;;;;;7.63;6.07;;;19.80;90.30;;;;;;5028586;28;20018;-84
2021/09/10 07:21:19;;;;;;;7.65;5.53;;;19.90;88.90;;;;;;5037258;28;20056;-84
2021/09/10 07:23:45;;;;;;;6.15;5.38;;;20.10;86.50;;;;;;5045040;28;20025;-85
2021/09/10 07:26:11;;;;;;;6.05;4.95;;;20.20;85.50;;;;;;5055814;28;20045;-84
2021/09/10 07:28:37;;;;;;;5.10;4.57;;;20.30;84.80;;;;;;5026865;28;20014;-83
2021/09/10 07:31:04;;;;;;;6.05;5.45;;;20.40;83.60;;;;;;5037549;28;20093;-85
2021/09/10 07:33:31;;;;;;;6.18;5.07;;;20.60;82.60;;;;;;5019194;28;20045;-85
2021/09/10 07:35:57;;;;;;;5.72;5.10;;;20.70;81.60;;;;;;5040015;28;20059;-83
2021/09/10 07:38:23;;;;;;;5.68;4.93;;;20.80;80.60;;;;;;5030790;28;20026;-84
2021/09/10 07:40:49;;;;;;;5.75;4.75;;;20.90;79.50;;;;;;5018581;28;20021;-86
2021/09/10 07:43:14;;;;;;;5.70;4.85;;;21.10;78.80;;;;;;5030144;28;20022;-86
2021/09/10 07:45:40;;;;;;;7.25;5.70;;;21.20;78.10;;;;;;5019776;28;20026;-86
2021/09/10 07:48:06;;;;;;;6.18;5.40;;;21.40;77.40;;;;;;5028585;28;20032;-86
2021/09/10 07:50:32;;;;;;;6.55;5.70;;;21.50;76.40;;;;;;5018993;28;20030;-87
2021/09/10 07:52:57;;;;;;;5.95;4.72;;;21.70;75.40;;;;;;5019126;28;20045;-86
2021/09/10 07:55:23;;;;;;;5.20;4.70;;;21.80;75.10;;;;;;5036354;28;20022;-86
2021/09/10 07:57:49;;;;;;;5.00;4.43;;;21.90;74.50;;;;;;5036210;28;20029;-86
2021/09/10 08:00:17;;;;;;;7.93;4.68;;;22.10;73.30;;;;;;5018654;28;20049;-85
2021/09/10 08:02:43;;;;;;;5.93;5.25;;;22.30;72.40;;;;;;5022528;28;20505;-88
2021/09/10 08:05:09;;;;;;;5.88;5.18;;;22.40;72.00;;;;;;4999261;28;20026;-85
2021/09/10 08:07:35;;;;;;;7.57;5.00;;;22.60;71.30;;;;;;5000911;28;20049;-86
2021/09/10 08:10:33;;;;;;;6.50;5.32;;;22.60;70.80;;;;;;5017857;28;20032;-85
2021/09/10 08:12:59;;;;;;;5.65;5.10;;;22.80;69.90;;;;;;5035762;28;20112;-84
2021/09/10 08:15:24;;;;;;;5.53;4.97;;;22.90;68.80;;;;;;5036663;28;20041;-84
2021/09/10 08:17:50;;;;;;;5.40;4.80;;;23.00;69.00;;;;;;5030953;28;20024;-85
2021/09/10 08:20:17;;;;;;;6.40;5.32;;;23.20;67.90;;;;;;5024801;28;20087;-84
2021/09/10 08:22:43;;;;;;;5.10;4.68;;;23.40;67.40;;;;;;5017837;28;20029;-85
2021/09/10 08:25:10;;;;;;;5.28;4.78;;;23.50;67.00;;;;;;4998920;28;20430;-86
2021/09/10 08:27:37;;;;;;;5.43;4.90;;;23.60;66.50;;;;;;5017152;28;20029;-87
2021/09/10 08:30:05;;;;;;;7.82;5.70;;;23.80;65.50;;;;;;5022013;28;20382;-84
2021/09/10 08:32:31;;;;;;;5.85;5.18;;;24.00;65.00;;;;;;5037985;28;20025;-86
2021/09/10 08:34:59;;;;;;;5.13;4.63;;;24.20;64.50;;;;;;5039023;28;20031;-84
2021/09/10 08:37:26;;;;;;;5.35;4.85;;;24.20;64.40;;;;;;5028696;28;20014;-84
2021/09/10 08:39:55;;;;;;;5.75;4.95;;;24.40;63.70;;;;;;5025109;28;20018;-84
2021/09/10 08:42:22;;;;;;;5.32;4.82;;;24.60;62.90;;;;;;5025467;28;20026;-83
2021/09/10 08:44:48;;;;;;;6.20;5.60;;;24.80;62.40;;;;;;5022390;28;20071;-84
2021/09/10 08:47:13;;;;;;;5.68;4.80;;;25.00;61.50;;;;;;5040789;28;20034;-83
2021/09/10 08:49:41;;;;;;;5.25;4.45;;;25.10;61.10;;;;;;5045526;28;20030;-83
2021/09/10 08:52:07;;;;;;;5.13;4.63;;;25.20;60.40;;;;;;5023351;28;20406;-81
2021/09/10 08:54:33;;;;;;;5.93;5.18;;;25.40;60.10;;;;;;5031128;28;20033;-82
2021/09/10 08:57:00;;;;;;;6.43;4.78;;;25.60;59.40;;;;;;5034741;28;20017;-83
2021/09/10 08:59:26;;;;;;;4.55;4.18;;;25.60;59.00;;;;;;5026524;28;20022;-85
2021/09/10 09:01:54;;;;;;;4.85;4.43;;;25.80;58.80;;;;;;5036908;28;20080;-84
2021/09/10 09:04:22;;;;;;;5.45;4.85;;;26.00;58.10;;;;;;5035719;28;20047;-84
2021/09/10 09:06:53;;;;;;;5.50;4.95;;;26.10;57.60;;;;;;5034756;28;20092;-82
2021/09/10 09:09:40;;;;;;;6.55;5.13;;;26.30;57.20;;;;;;5026842;28;20385;-84
2021/09/10 09:12:11;;;;;;;4.95;4.55;;;26.50;56.80;;;;;;5035227;28;20033;-83
2021/09/10 09:14:57;;;;;;;4.85;4.45;;;26.60;56.30;;;;;;5035525;28;20393;-83
2021/09/10 09:17:27;;;;;;;5.38;4.40;;;26.50;55.90;;;;;;5032275;28;20049;-83
2021/09/10 09:20:23;;;;;;;6.88;4.30;;;26.60;55.70;;;;;;5027261;28;20074;-83
2021/09/10 09:23:07;;;;;;;5.35;4.82;;;26.70;55.50;;;;;;4998769;28;20022;-84
2021/09/10 09:25:42;;;;;;;5.68;5.18;;;26.60;54.90;;;;;;5000519;28;20034;-83
2021/09/10 09:28:24;;;;;;;5.78;4.95;;;26.40;55.30;;;;;;5022321;28;20053;-83
2021/09/10 09:30:55;;;;;;;7.18;5.05;;;26.50;55.50;;;;;;5007217;28;20038;-83
2021/09/10 09:33:29;;;;;;;5.90;5.30;;;26.40;55.10;;;;;;5021633;28;20026;-83
2021/09/10 09:35:59;;;;;;;6.60;4.95;;;26.40;55.80;;;;;;5007005;28;20033;-80
2021/09/10 09:38:29;;;;;;;6.22;4.70;;;26.70;55.40;;;;;;5011297;28;20048;-83
2021/09/10 09:41:07;;;;;;;5.20;4.60;;;26.90;54.50;;;;;;5035316;28;20032;-83
2021/09/10 09:43:41;;;;;;;10.35;6.03;;;26.70;55.00;;;;;;5024344;28;20014;-83
2021/09/10 09:46:13;;;;;;;8.00;4.40;;;26.60;54.80;;;;;;5040478;28;20029;-82
2021/09/10 09:48:41;;;;;;;5.25;4.82;;;26.80;54.90;;;;;;5027849;28;20045;-86
2021/09/10 09:51:08;;;;;;;5.38;4.68;;;27.10;54.60;;;;;;5034152;28;20047;-85
2021/09/10 09:53:36;;;;;;;6.53;5.20;;;27.20;54.10;;;;;;5042292;28;20093;-84
2021/09/10 09:56:02;;;;;;;8.35;5.10;;;27.30;53.70;;;;;;5043019;28;20056;-83
2021/09/10 09:58:31;;;;;;;5.88;5.15;;;27.20;54.00;;;;;;5025824;28;20367;-83
2021/09/10 10:00:59;;;;;;;5.43;4.93;;;27.30;54.50;;;;;;5020456;28;20041;-85
2021/09/10 10:03:24;;;;;;;5.70;5.18;;;27.60;53.90;;;;;;5020700;28;20406;-85
2021/09/10 10:05:53;;;;;;;5.38;4.88;;;27.70;53.20;;;;;;5024773;28;20037;-84
2021/09/10 10:09:00;;;;;;;9.93;5.40;;;27.80;53.10;;;;;;5031486;28;20081;-83
2021/09/10 10:11:41;;;;;;;5.25;4.82;;;27.90;52.70;;;;;;5030716;28;20037;-83
2021/09/10 10:14:07;;;;;;;6.03;5.43;;;27.90;52.90;;;;;;5039819;28;20024;-84
2021/09/10 10:16:36;;;;;;;8.13;5.05;;;28.00;52.70;;;;;;5043503;28;20026;-84
2021/09/10 10:19:04;;;;;;;5.53;5.03;;;27.90;52.90;;;;;;5031441;28;20033;-84
2021/09/10 10:21:48;;;;;;;6.85;5.43;;;27.90;53.20;;;;;;5040839;28;20017;-84
2021/09/10 10:24:36;;;;;;;5.30;4.80;;;27.70;52.80;;;;;;5039505;28;20018;-84
2021/09/10 10:27:39;;;;;;;6.82;5.53;;;27.20;54.00;;;;;;5039551;28;20030;-85
2021/09/10 10:30:19;;;;;;;7.75;5.93;;;26.90;54.90;;;;;;5041876;28;20115;-84
2021/09/10 10:32:50;;;;;;;5.43;4.93;;;26.70;55.10;;;;;;5030538;28;20030;-84
2021/09/10 10:35:28;;;;;;;7.00;6.30;;;26.70;55.10;;;;;;5005458;28;20037;-83
2021/09/10 10:38:07;;;;;;;6.55;5.40;;;26.80;54.80;;;;;;5039084;28;20028;-84
2021/09/10 10:40:39;;;;;;;6.28;5.68;;;26.80;55.10;;;;;;5030759;28;20021;-84
2021/09/10 10:43:08;;;;;;;5.85;5.30;;;26.90;54.50;;;;;;5021047;28;20086;-84
2021/09/10 10:45:46;;;;;;;6.85;4.75;;;26.60;54.90;;;;;;5020648;28;20025;-84
2021/09/10 10:48:32;;;;;;;6.13;5.63;;;26.30;55.80;;;;;;5039003;28;20084;-82
2021/09/10 10:51:13;;;;;;;7.78;5.55;;;26.20;55.80;;;;;;5029036;28;20036;-84
2021/09/10 10:53:45;;;;;;;7.60;5.38;;;25.90;56.10;;;;;;5021763;28;20410;-84
2021/09/10 10:56:29;;;;;;;;;;;25.60;57.00;;;;;;5022200;28;20029;-83
2021/09/10 10:59:13;;;;;;;9.52;5.90;;;25.50;57.90;;;;;;5039571;28;19905;-83
2021/09/10 11:05:05;;;;;;;8.82;6.47;;;26.50;56.60;;;;;;5038092;28;20056;-82
2021/09/10 11:07:32;;;;;;;6.18;5.57;;;27.10;55.00;;;;;;5056017;22;20038;-81
2021/09/10 11:10:02;;;;;;;6.00;5.40;;;27.40;54.60;;;;;;5041549;28;20010;-81
2021/09/10 11:12:28;;;;;;;6.10;4.97;;;27.60;54.10;;;;;;5034435;28;20045;-81
2021/09/10 11:14:54;;;;;;;7.20;5.97;;;27.80;53.60;;;;;;5034273;28;20180;-81
2021/09/10 11:17:26;;;;;;;5.97;5.25;;;28.00;52.90;;;;;;5046734;28;20056;-82
2021/09/10 11:19:52;;;;;;;5.93;5.40;;;27.70;52.90;;;;;;5040127;28;20037;-81
2021/09/10 11:22:18;;;;;;;8.55;5.88;;;27.50;54.00;;;;;;5036851;28;20029;-82
2021/09/10 11:24:44;;;;;;;7.20;5.57;;;27.50;53.70;;;;;;5050266;28;20038;-81
2021/09/10 11:27:28;;;;;;;7.53;6.10;;;27.20;53.90;;;;;;5043087;28;20025;-81
2021/09/10 11:29:54;;;;;;;6.43;5.85;;;26.80;54.50;;;;;;5025494;28;20112;-80
2021/09/10 11:32:25;;;;;;;7.10;6.15;;;26.40;55.10;;;;;;5042752;28;20037;-80
2021/09/10 11:34:51;;;;;;;7.53;5.47;;;26.00;56.10;;;;;;5044672;28;20045;-82
2021/09/10 11:37:28;;;;;;;5.68;5.18;;;25.80;57.10;;;;;;5021384;28;20189;-81
2021/09/10 11:39:55;;;;;;;6.25;5.65;;;26.20;56.60;;;;;;5015852;28;20075;-81
2021/09/10 11:42:37;;;;;;;6.00;5.47;;;26.20;56.30;;;;;;5042621;28;20017;-83
2021/09/10 11:45:03;;;;;;;8.95;6.18;;;26.10;56.50;;;;;;5021706;28;20037;-82
2021/09/10 11:47:29;;;;;;;5.90;5.40;;;26.00;56.80;;;;;;5021417;28;20021;-82
2021/09/10 11:50:02;;;;;;;6.45;5.80;;;25.80;56.90;;;;;;5031577;28;20036;-81
2021/09/10 11:52:33;;;;;;;5.82;5.32;;;25.70;57.60;;;;;;5032375;28;20153;-83
2021/09/10 11:55:08;;;;;;;5.80;5.07;;;26.10;57.50;;;;;;5039981;28;20017;-83
2021/09/10 11:57:34;;;;;;;6.65;6.05;;;26.90;56.10;;;;;;5040000;28;20116;-83
2021/09/10 12:00:01;;;;;;;7.38;5.68;;;27.70;54.60;;;;;;5042089;28;20029;-81
2021/09/10 12:02:27;;;;;;;9.20;5.85;;;27.90;53.40;;;;;;5042129;28;20029;-81
2021/09/10 12:04:57;;;;;;;6.55;5.50;;;28.00;53.60;;;;;;5041588;28;20230;-79
2021/09/10 12:07:32;;;;;;;6.40;5.80;;;28.10;53.20;;;;;;5041233;28;20037;-81
2021/09/10 12:09:58;;;;;;;6.10;5.50;;;28.00;52.90;;;;;;5033182;28;20026;-81
2021/09/10 12:12:31;;;;;;;5.95;5.45;;;28.00;53.10;;;;;;5024916;28;20030;-82
2021/09/10 12:14:59;;;;;;;6.78;5.88;;;28.30;53.00;;;;;;5025606;28;20036;-81
2021/09/10 12:17:25;;;;;;;7.25;6.13;;;28.70;52.30;;;;;;5043293;28;20075;-81
2021/09/10 12:19:57;;;;;;;5.80;5.30;;;29.00;51.60;;;;;;5038412;28;20116;-82
2021/09/10 12:22:42;;;;;;;5.57;5.07;;;29.30;50.60;;;;;;5030778;28;20021;-80
2021/09/10 12:25:35;;;;;;;6.28;5.50;;;29.30;50.10;;;;;;5029139;28;20068;-82
2021/09/10 12:28:04;;;;;;;11.55;6.75;;;28.90;50.60;;;;;;5013054;28;20551;-81
2021/09/10 12:30:32;;;;;;;7.85;5.80;;;28.70;50.90;;;;;;5040387;28;20028;-82
2021/09/10 12:32:58;;;;;;;10.30;6.80;;;28.40;51.40;;;;;;5048184;28;20029;-82
2021/09/10 12:35:25;;;;;;;7.00;5.70;;;28.40;51.30;;;;;;5059261;28;20041;-83
2021/09/10 12:38:00;;;;;;;7.18;5.25;;;28.50;51.60;;;;;;5044080;28;20022;-82
2021/09/10 12:40:31;;;;;;;6.60;5.90;;;28.20;52.20;;;;;;5026220;28;20014;-83
2021/09/10 12:42:57;;;;;;;;;;;28.10;51.90;;;;;;5019257;28;20014;-83
2021/09/10 12:45:23;;;;;;;7.25;6.07;;;27.80;52.20;;;;;;5027597;28;19916;-81
2021/09/10 12:47:49;;;;;;;7.22;5.63;;;27.50;52.80;;;;;;5022296;28;20022;-83
2021/09/10 12:50:16;;;;;;;7.32;6.28;;;27.40;53.70;;;;;;5020366;28;20014;-82
2021/09/10 12:52:42;;;;;;;6.00;5.50;;;27.10;53.30;;;;;;5002698;28;20048;-82
2021/09/10 12:55:08;;;;;;;6.10;5.53;;;26.80;54.40;;;;;;5020127;28;20540;-82
2021/09/10 12:57:34;;;;;;;6.10;5.50;;;26.70;54.70;;;;;;5021607;28;20090;-81
2021/09/10 13:00:01;;;;;;;5.90;5.30;;;26.70;55.00;;;;;;5020626;28;20131;-81